sensor_id;sensor_type;location;lat;lon;timestamp;P1;durP1;ratioP1;P2;durP2;ratioP2
15498;SDS011;7851;52.260;6.030;2023-03-02T00:03:41;62.8;;;44.4;;
15498;SDS011;7851;52.260;6.030;2023-03-02T00:03:41;63.1;;;45.6;;
15498;SDS011;7851;52.260;6.030;2023-03-02T00:03:57;67.4;;;46;;
15498;SDS011;7851;52.260;6.030;2023-03-02T00:04:57;72.3;;;46.8;;
15498;SDS011;7851;52.260;6.030;2023-03-02T00:05:57;61.5;;;43.7;;
15498;SDS011;7851;52.260;6.030;2023-03-02T00:07:02;62.5;;;45.1;;
15498;SDS011;7851;52.260;6.030;2023-03-02T00:08:00;65.3;;;46.8;;
15498;SDS011;7851;52.260;6.030;2023-03-02T00:09:02;67.4;;;45.2;;
15498;SDS011;7851;52.260;6.030;2023-03-02T00:10:03;74;;;45.7;;
15498;SDS011;7851;52.260;6.030;2023-03-02T00:11:02;71.8;;;47;;
15498;SDS011;7851;52.260;6.030;2023-03-02T00:12:02;72;;;46.3;;
15498;SDS011;7851;52.260;6.030;2023-03-02T00:13:02;67.9;;;47.5;;
15498;SDS011;7851;52.260;6.030;2023-03-02T00:14:02;64.8;;;47.1;;
15498;SDS011;7851;52.260;6.030;2023-03-02T00:15:03;66.3;;;45.1;;
15498;SDS011;7851;52.260;6.030;2023-03-02T00:16:02;73.6;;;47.7;;
15498;SDS011;7851;52.260;6.030;2023-03-02T00:17:02;63.8;;;46.3;;
15498;SDS011;7851;52.260;6.030;2023-03-02T00:18:02;63.8;;;44.3;;
15498;SDS011;7851;52.260;6.030;2023-03-02T00:19:02;67.4;;;46.2;;
15498;SDS011;7851;52.260;6.030;2023-03-02T00:20:03;73.4;;;46.9;;
15498;SDS011;7851;52.260;6.030;2023-03-02T00:21:02;71.1;;;47.8;;
15498;SDS011;7851;52.260;6.030;2023-03-02T00:22:02;69.5;;;46.9;;
15498;SDS011;7851;52.260;6.030;2023-03-02T00:23:03;71.2;;;47.5;;
15498;SDS011;7851;52.260;6.030;2023-03-02T00:24:02;72.7;;;46.8;;
15498;SDS011;7851;52.260;6.030;2023-03-02T00:25:03;64.4;;;45.6;;
15498;SDS011;7851;52.260;6.030;2023-03-02T00:26:06;68.6;;;46.6;;
15498;SDS011;7851;52.260;6.030;2023-03-02T00:27:05;64.9;;;45.9;;
15498;SDS011;7851;52.260;6.030;2023-03-02T00:28:05;70.9;;;45.9;;
15498;SDS011;7851;52.260;6.030;2023-03-02T00:29:05;71.6;;;47.6;;
15498;SDS011;7851;52.260;6.030;2023-03-02T00:30:08;65.1;;;46.6;;
15498;SDS011;7851;52.260;6.030;2023-03-02T00:31:05;74.4;;;45.2;;
15498;SDS011;7851;52.260;6.030;2023-03-02T00:32:05;68.3;;;44.8;;
15498;SDS011;7851;52.260;6.030;2023-03-02T00:33:05;69;;;45.5;;
15498;SDS011;7851;52.260;6.030;2023-03-02T00:34:05;64.8;;;44.6;;
15498;SDS011;7851;52.260;6.030;2023-03-02T00:35:05;64.4;;;43.1;;
15498;SDS011;7851;52.260;6.030;2023-03-02T00:36:07;70.7;;;47.2;;
15498;SDS011;7851;52.260;6.030;2023-03-02T00:37:05;67.8;;;44.2;;
15498;SDS011;7851;52.260;6.030;2023-03-02T00:38:05;63.2;;;45.1;;
15498;SDS011;7851;52.260;6.030;2023-03-02T00:39:05;63.4;;;44.4;;
15498;SDS011;7851;52.260;6.030;2023-03-02T00:40:06;63.1;;;43.9;;
15498;SDS011;7851;52.260;6.030;2023-03-02T00:41:05;64.8;;;45.1;;
15498;SDS011;7851;52.260;6.030;2023-03-02T00:42:05;66;;;43.9;;
15498;SDS011;7851;52.260;6.030;2023-03-02T00:43:05;69.1;;;45.3;;
15498;SDS011;7851;52.260;6.030;2023-03-02T00:44:05;73.3;;;45.1;;
15498;SDS011;7851;52.260;6.030;2023-03-02T00:45:06;68.3;;;45.4;;
15498;SDS011;7851;52.260;6.030;2023-03-02T00:46:09;72.4;;;45.1;;
15498;SDS011;7851;52.260;6.030;2023-03-02T00:47:05;60.9;;;44.2;;
15498;SDS011;7851;52.260;6.030;2023-03-02T00:48:05;61.1;;;44.8;;
15498;SDS011;7851;52.260;6.030;2023-03-02T00:49:05;62.1;;;43.4;;
15498;SDS011;7851;52.260;6.030;2023-03-02T00:50:05;64.6;;;43.2;;
15498;SDS011;7851;52.260;6.030;2023-03-02T00:51:05;57.3;;;42.4;;
15498;SDS011;7851;52.260;6.030;2023-03-02T00:52:05;63.4;;;43.8;;
15498;SDS011;7851;52.260;6.030;2023-03-02T00:53:05;56.5;;;41.3;;
15498;SDS011;7851;52.260;6.030;2023-03-02T00:54:05;63.4;;;43.8;;
15498;SDS011;7851;52.260;6.030;2023-03-02T00:55:05;66.7;;;45.5;;
15498;SDS011;7851;52.260;6.030;2023-03-02T00:56:05;62.4;;;43.3;;
15498;SDS011;7851;52.260;6.030;2023-03-02T00:57:05;61.3;;;43;;
15498;SDS011;7851;52.260;6.030;2023-03-02T00:58:05;63.6;;;43.1;;
15498;SDS011;7851;52.260;6.030;2023-03-02T00:59:05;64.8;;;45.1;;
15498;SDS011;7851;52.260;6.030;2023-03-02T01:00:05;62.2;;;43.8;;
15498;SDS011;7851;52.260;6.030;2023-03-02T01:01:06;62.3;;;44.2;;
15498;SDS011;7851;52.260;6.030;2023-03-02T01:02:05;62.6;;;42.3;;
15498;SDS011;7851;52.260;6.030;2023-03-02T01:03:05;64.4;;;43.5;;
15498;SDS011;7851;52.260;6.030;2023-03-02T01:04:05;69.5;;;43.8;;
15498;SDS011;7851;52.260;6.030;2023-03-02T01:05:05;60.4;;;43.3;;
15498;SDS011;7851;52.260;6.030;2023-03-02T01:06:12;63.1;;;42.2;;
15498;SDS011;7851;52.260;6.030;2023-03-02T01:07:06;59.5;;;41.5;;
15498;SDS011;7851;52.260;6.030;2023-03-02T01:08:05;60.5;;;40.9;;
15498;SDS011;7851;52.260;6.030;2023-03-02T01:09:05;62.4;;;41.9;;
15498;SDS011;7851;52.260;6.030;2023-03-02T01:10:06;54.4;;;39.9;;
15498;SDS011;7851;52.260;6.030;2023-03-02T01:11:10;60.7;;;40.8;;
15498;SDS011;7851;52.260;6.030;2023-03-02T01:12:05;56.7;;;39.7;;
15498;SDS011;7851;52.260;6.030;2023-03-02T01:13:28;62.2;;;43.3;;
15498;SDS011;7851;52.260;6.030;2023-03-02T01:14:05;63;;;43.7;;
15498;SDS011;7851;52.260;6.030;2023-03-02T01:15:06;55.3;;;40.9;;
15498;SDS011;7851;52.260;6.030;2023-03-02T01:16:05;61.7;;;41.7;;
15498;SDS011;7851;52.260;6.030;2023-03-02T01:17:05;57;;;39.6;;
15498;SDS011;7851;52.260;6.030;2023-03-02T01:18:05;51.5;;;38.7;;
15498;SDS011;7851;52.260;6.030;2023-03-02T01:19:05;59.4;;;40.7;;
15498;SDS011;7851;52.260;6.030;2023-03-02T01:20:06;64.1;;;42.8;;
15498;SDS011;7851;52.260;6.030;2023-03-02T01:21:25;59.3;;;42.6;;
15498;SDS011;7851;52.260;6.030;2023-03-02T01:22:05;67.1;;;43.7;;
15498;SDS011;7851;52.260;6.030;2023-03-02T01:23:05;60.2;;;39.8;;
15498;SDS011;7851;52.260;6.030;2023-03-02T01:24:05;53.8;;;39.7;;
15498;SDS011;7851;52.260;6.030;2023-03-02T01:25:05;59.4;;;42;;
15498;SDS011;7851;52.260;6.030;2023-03-02T01:26:05;58.6;;;39.4;;
15498;SDS011;7851;52.260;6.030;2023-03-02T01:27:05;55.9;;;39.6;;
15498;SDS011;7851;52.260;6.030;2023-03-02T01:28:05;60.3;;;40.9;;
15498;SDS011;7851;52.260;6.030;2023-03-02T01:29:05;56.1;;;41.2;;
15498;SDS011;7851;52.260;6.030;2023-03-02T01:30:05;58;;;39.8;;
15498;SDS011;7851;52.260;6.030;2023-03-02T01:31:05;53.8;;;40.8;;
15498;SDS011;7851;52.260;6.030;2023-03-02T01:32:05;54.6;;;39.2;;
15498;SDS011;7851;52.260;6.030;2023-03-02T01:33:05;51.8;;;38.9;;
15498;SDS011;7851;52.260;6.030;2023-03-02T01:34:05;56.7;;;38.3;;
15498;SDS011;7851;52.260;6.030;2023-03-02T01:35:05;53.3;;;39.5;;
15498;SDS011;7851;52.260;6.030;2023-03-02T01:36:06;56.8;;;38.7;;
15498;SDS011;7851;52.260;6.030;2023-03-02T01:37:05;52.5;;;38;;
15498;SDS011;7851;52.260;6.030;2023-03-02T01:38:05;59.6;;;38.9;;
15498;SDS011;7851;52.260;6.030;2023-03-02T01:39:05;53.4;;;37.7;;
15498;SDS011;7851;52.260;6.030;2023-03-02T01:40:06;55.3;;;39.1;;
15498;SDS011;7851;52.260;6.030;2023-03-02T01:41:05;49.7;;;36.7;;
15498;SDS011;7851;52.260;6.030;2023-03-02T01:42:05;55.3;;;40.6;;
15498;SDS011;7851;52.260;6.030;2023-03-02T01:43:09;50.5;;;36.8;;
15498;SDS011;7851;52.260;6.030;2023-03-02T01:44:07;53.9;;;37.6;;
15498;SDS011;7851;52.260;6.030;2023-03-02T01:45:38;54.7;;;38.1;;
15498;SDS011;7851;52.260;6.030;2023-03-02T01:46:05;50;;;37.7;;
15498;SDS011;7851;52.260;6.030;2023-03-02T01:47:08;49.2;;;36.2;;
15498;SDS011;7851;52.260;6.030;2023-03-02T01:48:06;55.8;;;38.2;;
15498;SDS011;7851;52.260;6.030;2023-03-02T01:49:06;60;;;38.7;;
15498;SDS011;7851;52.260;6.030;2023-03-02T01:50:10;47.7;;;37.1;;
15498;SDS011;7851;52.260;6.030;2023-03-02T01:51:05;55.6;;;37.2;;
15498;SDS011;7851;52.260;6.030;2023-03-02T01:52:05;51.5;;;38.4;;
15498;SDS011;7851;52.260;6.030;2023-03-02T01:53:05;47.6;;;36.6;;
15498;SDS011;7851;52.260;6.030;2023-03-02T01:54:06;51.9;;;36.3;;
15498;SDS011;7851;52.260;6.030;2023-03-02T01:55:06;54.2;;;36.8;;
15498;SDS011;7851;52.260;6.030;2023-03-02T01:56:05;58.1;;;37.5;;
15498;SDS011;7851;52.260;6.030;2023-03-02T01:57:05;58.7;;;37.9;;
15498;SDS011;7851;52.260;6.030;2023-03-02T01:58:05;53.2;;;38;;
15498;SDS011;7851;52.260;6.030;2023-03-02T01:59:06;50.1;;;37;;
15498;SDS011;7851;52.260;6.030;2023-03-02T02:00:07;55.3;;;38.2;;
15498;SDS011;7851;52.260;6.030;2023-03-02T02:01:05;56.7;;;39;;
15498;SDS011;7851;52.260;6.030;2023-03-02T02:02:06;59.7;;;38;;
15498;SDS011;7851;52.260;6.030;2023-03-02T02:03:07;48.3;;;35;;
15498;SDS011;7851;52.260;6.030;2023-03-02T02:04:05;49.2;;;35.6;;
15498;SDS011;7851;52.260;6.030;2023-03-02T02:05:05;55.1;;;38;;
15498;SDS011;7851;52.260;6.030;2023-03-02T02:06:08;57.9;;;38.6;;
15498;SDS011;7851;52.260;6.030;2023-03-02T02:07:06;58.4;;;38.4;;
15498;SDS011;7851;52.260;6.030;2023-03-02T02:08:05;51.7;;;37;;
15498;SDS011;7851;52.260;6.030;2023-03-02T02:09:06;53.9;;;37.6;;
15498;SDS011;7851;52.260;6.030;2023-03-02T02:10:06;50.8;;;36.1;;
15498;SDS011;7851;52.260;6.030;2023-03-02T02:11:05;52.7;;;36.6;;
15498;SDS011;7851;52.260;6.030;2023-03-02T02:12:05;55.4;;;36.4;;
15498;SDS011;7851;52.260;6.030;2023-03-02T02:13:07;49.5;;;35;;
15498;SDS011;7851;52.260;6.030;2023-03-02T02:14:05;53.6;;;36.5;;
15498;SDS011;7851;52.260;6.030;2023-03-02T02:15:07;48.4;;;35.6;;
15498;SDS011;7851;52.260;6.030;2023-03-02T02:16:06;48.6;;;36.2;;
15498;SDS011;7851;52.260;6.030;2023-03-02T02:17:05;50.1;;;35.2;;
15498;SDS011;7851;52.260;6.030;2023-03-02T02:18:05;48.7;;;34.4;;
15498;SDS011;7851;52.260;6.030;2023-03-02T02:19:37;48.3;;;36;;
15498;SDS011;7851;52.260;6.030;2023-03-02T02:20:08;56.5;;;36.8;;
15498;SDS011;7851;52.260;6.030;2023-03-02T02:21:05;50.1;;;34.7;;
15498;SDS011;7851;52.260;6.030;2023-03-02T02:22:06;49.7;;;35.4;;
15498;SDS011;7851;52.260;6.030;2023-03-02T02:23:11;52.1;;;35.6;;
15498;SDS011;7851;52.260;6.030;2023-03-02T02:24:06;55.9;;;38.6;;
15498;SDS011;7851;52.260;6.030;2023-03-02T02:25:08;51.5;;;35.2;;
15498;SDS011;7851;52.260;6.030;2023-03-02T02:26:06;49.4;;;36;;
15498;SDS011;7851;52.260;6.030;2023-03-02T02:27:05;49.9;;;33.3;;
15498;SDS011;7851;52.260;6.030;2023-03-02T02:28:06;52.7;;;35.7;;
15498;SDS011;7851;52.260;6.030;2023-03-02T02:29:06;57;;;35.8;;
15498;SDS011;7851;52.260;6.030;2023-03-02T02:30:05;56.9;;;36.1;;
15498;SDS011;7851;52.260;6.030;2023-03-02T02:31:07;48.7;;;36.3;;
15498;SDS011;7851;52.260;6.030;2023-03-02T02:32:06;53.9;;;36.4;;
15498;SDS011;7851;52.260;6.030;2023-03-02T02:33:05;48.5;;;35.9;;
15498;SDS011;7851;52.260;6.030;2023-03-02T02:34:08;50.2;;;36.3;;
15498;SDS011;7851;52.260;6.030;2023-03-02T02:35:07;49.8;;;36.7;;
15498;SDS011;7851;52.260;6.030;2023-03-02T02:36:06;56.6;;;36.9;;
15498;SDS011;7851;52.260;6.030;2023-03-02T02:37:06;47.7;;;36.3;;
15498;SDS011;7851;52.260;6.030;2023-03-02T02:38:06;53.4;;;35.6;;
15498;SDS011;7851;52.260;6.030;2023-03-02T02:39:06;49.6;;;35.8;;
15498;SDS011;7851;52.260;6.030;2023-03-02T02:40:06;47.1;;;35.6;;
15498;SDS011;7851;52.260;6.030;2023-03-02T02:41:06;47.1;;;35.4;;
15498;SDS011;7851;52.260;6.030;2023-03-02T02:42:06;50.8;;;36.4;;
15498;SDS011;7851;52.260;6.030;2023-03-02T02:43:05;58;;;36.8;;
15498;SDS011;7851;52.260;6.030;2023-03-02T02:44:05;59.5;;;37.6;;
15498;SDS011;7851;52.260;6.030;2023-03-02T02:45:06;48.2;;;35.2;;
15498;SDS011;7851;52.260;6.030;2023-03-02T02:46:05;47.5;;;35.4;;
15498;SDS011;7851;52.260;6.030;2023-03-02T02:47:07;47.7;;;36.2;;
15498;SDS011;7851;52.260;6.030;2023-03-02T02:48:07;49.7;;;36.6;;
15498;SDS011;7851;52.260;6.030;2023-03-02T02:49:05;48.9;;;34.4;;
15498;SDS011;7851;52.260;6.030;2023-03-02T02:50:05;61.1;;;37.8;;
15498;SDS011;7851;52.260;6.030;2023-03-02T02:51:05;50.3;;;35.4;;
15498;SDS011;7851;52.260;6.030;2023-03-02T02:52:05;52.8;;;36.3;;
15498;SDS011;7851;52.260;6.030;2023-03-02T02:53:06;53.8;;;36.1;;
15498;SDS011;7851;52.260;6.030;2023-03-02T02:54:05;51;;;34.3;;
15498;SDS011;7851;52.260;6.030;2023-03-02T02:55:05;51.8;;;35.8;;
15498;SDS011;7851;52.260;6.030;2023-03-02T02:56:05;50;;;33.6;;
15498;SDS011;7851;52.260;6.030;2023-03-02T02:57:05;48.5;;;33.6;;
15498;SDS011;7851;52.260;6.030;2023-03-02T02:58:09;45.8;;;35.4;;
15498;SDS011;7851;52.260;6.030;2023-03-02T02:59:06;51.2;;;34.9;;
15498;SDS011;7851;52.260;6.030;2023-03-02T03:00:06;49.1;;;35.3;;
15498;SDS011;7851;52.260;6.030;2023-03-02T03:01:05;49;;;34.9;;
15498;SDS011;7851;52.260;6.030;2023-03-02T03:02:05;47.2;;;33.4;;
15498;SDS011;7851;52.260;6.030;2023-03-02T03:03:06;49.6;;;33.1;;
15498;SDS011;7851;52.260;6.030;2023-03-02T03:04:05;48;;;34;;
15498;SDS011;7851;52.260;6.030;2023-03-02T03:05:08;48.7;;;34.8;;
15498;SDS011;7851;52.260;6.030;2023-03-02T03:06:06;50.9;;;35.9;;
15498;SDS011;7851;52.260;6.030;2023-03-02T03:07:05;51.9;;;33.7;;
15498;SDS011;7851;52.260;6.030;2023-03-02T03:08:06;49.3;;;35.1;;
15498;SDS011;7851;52.260;6.030;2023-03-02T03:09:05;45.7;;;33.7;;
15498;SDS011;7851;52.260;6.030;2023-03-02T03:10:07;47.3;;;33.1;;
15498;SDS011;7851;52.260;6.030;2023-03-02T03:11:05;46.6;;;33.9;;
15498;SDS011;7851;52.260;6.030;2023-03-02T03:12:07;45.5;;;32.5;;
15498;SDS011;7851;52.260;6.030;2023-03-02T03:13:05;46.5;;;33.3;;
15498;SDS011;7851;52.260;6.030;2023-03-02T03:14:07;44.6;;;33.1;;
15498;SDS011;7851;52.260;6.030;2023-03-02T03:15:05;44.7;;;31.1;;
15498;SDS011;7851;52.260;6.030;2023-03-02T03:16:05;44.5;;;32.2;;
15498;SDS011;7851;52.260;6.030;2023-03-02T03:17:05;46.3;;;30.8;;
15498;SDS011;7851;52.260;6.030;2023-03-02T03:18:05;46.4;;;31.7;;
15498;SDS011;7851;52.260;6.030;2023-03-02T03:19:07;45.8;;;31.6;;
15498;SDS011;7851;52.260;6.030;2023-03-02T03:20:06;46.1;;;31.3;;
15498;SDS011;7851;52.260;6.030;2023-03-02T03:21:05;39.5;;;29.6;;
15498;SDS011;7851;52.260;6.030;2023-03-02T03:22:05;45.3;;;32.6;;
15498;SDS011;7851;52.260;6.030;2023-03-02T03:23:05;46.2;;;32.2;;
15498;SDS011;7851;52.260;6.030;2023-03-02T03:24:05;48.8;;;32.8;;
15498;SDS011;7851;52.260;6.030;2023-03-02T03:25:05;44.4;;;30.6;;
15498;SDS011;7851;52.260;6.030;2023-03-02T03:26:05;44.2;;;31.8;;
15498;SDS011;7851;52.260;6.030;2023-03-02T03:27:05;52.4;;;32.8;;
15498;SDS011;7851;52.260;6.030;2023-03-02T03:28:05;51.1;;;34.1;;
15498;SDS011;7851;52.260;6.030;2023-03-02T03:29:05;45.4;;;32;;
15498;SDS011;7851;52.260;6.030;2023-03-02T03:30:05;49.2;;;33.6;;
15498;SDS011;7851;52.260;6.030;2023-03-02T03:31:05;47.8;;;32.6;;
15498;SDS011;7851;52.260;6.030;2023-03-02T03:32:05;44.5;;;32.3;;
15498;SDS011;7851;52.260;6.030;2023-03-02T03:33:05;47.9;;;32.3;;
15498;SDS011;7851;52.260;6.030;2023-03-02T03:34:05;43.2;;;32.3;;
15498;SDS011;7851;52.260;6.030;2023-03-02T03:35:05;50.3;;;35.4;;
15498;SDS011;7851;52.260;6.030;2023-03-02T03:36:05;50;;;35.1;;
15498;SDS011;7851;52.260;6.030;2023-03-02T03:37:05;52.5;;;34.3;;
15498;SDS011;7851;52.260;6.030;2023-03-02T03:38:05;51.7;;;33.9;;
15498;SDS011;7851;52.260;6.030;2023-03-02T03:39:05;53.6;;;34.7;;
15498;SDS011;7851;52.260;6.030;2023-03-02T03:40:06;55.7;;;35.2;;
15498;SDS011;7851;52.260;6.030;2023-03-02T03:41:05;56.7;;;36;;
15498;SDS011;7851;52.260;6.030;2023-03-02T03:42:05;50.5;;;34.7;;
15498;SDS011;7851;52.260;6.030;2023-03-02T03:43:05;58.3;;;36;;
15498;SDS011;7851;52.260;6.030;2023-03-02T03:44:05;50.8;;;34.1;;
15498;SDS011;7851;52.260;6.030;2023-03-02T03:45:06;54.3;;;35.5;;
15498;SDS011;7851;52.260;6.030;2023-03-02T03:46:05;59.1;;;35.8;;
15498;SDS011;7851;52.260;6.030;2023-03-02T03:47:05;54.7;;;34.9;;
15498;SDS011;7851;52.260;6.030;2023-03-02T03:48:05;55;;;35.7;;
15498;SDS011;7851;52.260;6.030;2023-03-02T03:49:05;54.5;;;35.5;;
15498;SDS011;7851;52.260;6.030;2023-03-02T03:50:05;60.4;;;37;;
15498;SDS011;7851;52.260;6.030;2023-03-02T03:51:05;52.8;;;35.2;;
15498;SDS011;7851;52.260;6.030;2023-03-02T03:52:05;58;;;36.2;;
15498;SDS011;7851;52.260;6.030;2023-03-02T03:53:05;54.6;;;35.7;;
15498;SDS011;7851;52.260;6.030;2023-03-02T03:54:06;55.5;;;35.9;;
15498;SDS011;7851;52.260;6.030;2023-03-02T03:55:05;49.9;;;34.4;;
15498;SDS011;7851;52.260;6.030;2023-03-02T03:56:05;52;;;36.5;;
15498;SDS011;7851;52.260;6.030;2023-03-02T03:57:05;58;;;35.8;;
15498;SDS011;7851;52.260;6.030;2023-03-02T03:58:05;50.4;;;34.3;;
15498;SDS011;7851;52.260;6.030;2023-03-02T03:59:06;57.9;;;35.1;;
15498;SDS011;7851;52.260;6.030;2023-03-02T04:00:07;59.9;;;35.7;;
15498;SDS011;7851;52.260;6.030;2023-03-02T04:01:05;50;;;35.4;;
15498;SDS011;7851;52.260;6.030;2023-03-02T04:02:05;55;;;34.9;;
15498;SDS011;7851;52.260;6.030;2023-03-02T04:03:05;52;;;33.1;;
15498;SDS011;7851;52.260;6.030;2023-03-02T04:04:06;52.6;;;33.5;;
15498;SDS011;7851;52.260;6.030;2023-03-02T04:05:05;56.8;;;35;;
15498;SDS011;7851;52.260;6.030;2023-03-02T04:06:05;52.9;;;34.4;;
15498;SDS011;7851;52.260;6.030;2023-03-02T04:07:05;64.3;;;37.2;;
15498;SDS011;7851;52.260;6.030;2023-03-02T04:08:05;50.9;;;35.5;;
15498;SDS011;7851;52.260;6.030;2023-03-02T04:09:05;54.2;;;36.1;;
15498;SDS011;7851;52.260;6.030;2023-03-02T04:10:06;57.1;;;34.9;;
15498;SDS011;7851;52.260;6.030;2023-03-02T04:11:05;53.4;;;36.9;;
15498;SDS011;7851;52.260;6.030;2023-03-02T04:12:06;55.5;;;36.7;;
15498;SDS011;7851;52.260;6.030;2023-03-02T04:13:05;52.7;;;36.5;;
15498;SDS011;7851;52.260;6.030;2023-03-02T04:14:05;58.2;;;37;;
15498;SDS011;7851;52.260;6.030;2023-03-02T04:15:07;54.4;;;36.3;;
15498;SDS011;7851;52.260;6.030;2023-03-02T04:16:05;60.6;;;37;;
15498;SDS011;7851;52.260;6.030;2023-03-02T04:17:05;55.1;;;35.7;;
15498;SDS011;7851;52.260;6.030;2023-03-02T04:18:05;53.5;;;37.3;;
15498;SDS011;7851;52.260;6.030;2023-03-02T04:19:05;54;;;37;;
15498;SDS011;7851;52.260;6.030;2023-03-02T04:20:05;55.1;;;36.8;;
15498;SDS011;7851;52.260;6.030;2023-03-02T04:21:05;58.7;;;36.1;;
15498;SDS011;7851;52.260;6.030;2023-03-02T04:22:05;58.2;;;37.1;;
15498;SDS011;7851;52.260;6.030;2023-03-02T04:23:05;56.3;;;36.9;;
15498;SDS011;7851;52.260;6.030;2023-03-02T04:24:05;54.6;;;36.3;;
15498;SDS011;7851;52.260;6.030;2023-03-02T04:25:05;51.6;;;35.7;;
15498;SDS011;7851;52.260;6.030;2023-03-02T04:26:05;51.3;;;35.3;;
15498;SDS011;7851;52.260;6.030;2023-03-02T04:27:05;51.6;;;35.7;;
15498;SDS011;7851;52.260;6.030;2023-03-02T04:28:05;59.9;;;38;;
15498;SDS011;7851;52.260;6.030;2023-03-02T04:29:05;55.2;;;36.4;;
15498;SDS011;7851;52.260;6.030;2023-03-02T04:30:06;48.5;;;35.9;;
15498;SDS011;7851;52.260;6.030;2023-03-02T04:31:05;53.1;;;35.2;;
15498;SDS011;7851;52.260;6.030;2023-03-02T04:32:05;60.1;;;36.1;;
15498;SDS011;7851;52.260;6.030;2023-03-02T04:33:05;54.9;;;37.6;;
15498;SDS011;7851;52.260;6.030;2023-03-02T04:34:05;53.8;;;35.8;;
15498;SDS011;7851;52.260;6.030;2023-03-02T04:35:05;57.7;;;37.4;;
15498;SDS011;7851;52.260;6.030;2023-03-02T04:36:05;59.4;;;38.3;;
15498;SDS011;7851;52.260;6.030;2023-03-02T04:37:05;58.8;;;36.9;;
15498;SDS011;7851;52.260;6.030;2023-03-02T04:38:05;57.7;;;37.6;;
15498;SDS011;7851;52.260;6.030;2023-03-02T04:39:05;57.2;;;37.7;;
15498;SDS011;7851;52.260;6.030;2023-03-02T04:40:06;58;;;36.7;;
15498;SDS011;7851;52.260;6.030;2023-03-02T04:41:05;54.5;;;35.3;;
15498;SDS011;7851;52.260;6.030;2023-03-02T04:42:05;64.9;;;37;;
15498;SDS011;7851;52.260;6.030;2023-03-02T04:43:05;48.1;;;34.5;;
15498;SDS011;7851;52.260;6.030;2023-03-02T04:44:05;56;;;36.6;;
15498;SDS011;7851;52.260;6.030;2023-03-02T04:45:06;56.3;;;37.2;;
15498;SDS011;7851;52.260;6.030;2023-03-02T04:46:05;55.5;;;37.6;;
15498;SDS011;7851;52.260;6.030;2023-03-02T04:47:05;56.1;;;36.8;;
15498;SDS011;7851;52.260;6.030;2023-03-02T04:48:05;53.8;;;35.9;;
15498;SDS011;7851;52.260;6.030;2023-03-02T04:49:05;59.5;;;35.8;;
15498;SDS011;7851;52.260;6.030;2023-03-02T04:50:06;56.1;;;36.1;;
15498;SDS011;7851;52.260;6.030;2023-03-02T04:51:05;49.4;;;35.9;;
15498;SDS011;7851;52.260;6.030;2023-03-02T04:52:05;58.3;;;35.3;;
15498;SDS011;7851;52.260;6.030;2023-03-02T04:53:05;60.3;;;36.6;;
15498;SDS011;7851;52.260;6.030;2023-03-02T04:54:06;58.9;;;36.7;;
15498;SDS011;7851;52.260;6.030;2023-03-02T04:55:05;54.2;;;37.5;;
15498;SDS011;7851;52.260;6.030;2023-03-02T04:56:05;51.6;;;35.3;;
15498;SDS011;7851;52.260;6.030;2023-03-02T04:57:05;54.2;;;37.4;;
15498;SDS011;7851;52.260;6.030;2023-03-02T04:58:05;53.2;;;35.9;;
15498;SDS011;7851;52.260;6.030;2023-03-02T04:59:05;60.8;;;36.2;;
15498;SDS011;7851;52.260;6.030;2023-03-02T05:00:06;63.4;;;38.3;;
15498;SDS011;7851;52.260;6.030;2023-03-02T05:01:05;54.6;;;34.6;;
15498;SDS011;7851;52.260;6.030;2023-03-02T05:02:05;54.5;;;35.6;;
15498;SDS011;7851;52.260;6.030;2023-03-02T05:03:05;52.4;;;35.7;;
15498;SDS011;7851;52.260;6.030;2023-03-02T05:05:05;50.6;;;33.8;;
15498;SDS011;7851;52.260;6.030;2023-03-02T05:06:05;55.3;;;33.2;;
15498;SDS011;7851;52.260;6.030;2023-03-02T05:07:05;51.2;;;33.7;;
15498;SDS011;7851;52.260;6.030;2023-03-02T05:08:05;49.5;;;32.9;;
15498;SDS011;7851;52.260;6.030;2023-03-02T05:09:05;50.8;;;32.4;;
15498;SDS011;7851;52.260;6.030;2023-03-02T05:10:05;54.9;;;33.1;;
15498;SDS011;7851;52.260;6.030;2023-03-02T05:11:05;48.1;;;33;;
15498;SDS011;7851;52.260;6.030;2023-03-02T05:12:05;54.1;;;34.5;;
15498;SDS011;7851;52.260;6.030;2023-03-02T05:13:05;51.5;;;33.2;;
15498;SDS011;7851;52.260;6.030;2023-03-02T05:14:05;56.9;;;34.9;;
15498;SDS011;7851;52.260;6.030;2023-03-02T05:15:06;52.2;;;33.9;;
15498;SDS011;7851;52.260;6.030;2023-03-02T05:16:05;55.7;;;35.9;;
15498;SDS011;7851;52.260;6.030;2023-03-02T05:17:05;44.9;;;32.3;;
15498;SDS011;7851;52.260;6.030;2023-03-02T05:18:06;52.3;;;34.4;;
15498;SDS011;7851;52.260;6.030;2023-03-02T05:19:26;45.8;;;30.5;;
15498;SDS011;7851;52.260;6.030;2023-03-02T05:20:05;46.8;;;31.9;;
15498;SDS011;7851;52.260;6.030;2023-03-02T05:21:05;46.8;;;31.3;;
15498;SDS011;7851;52.260;6.030;2023-03-02T05:22:05;50.9;;;34.1;;
15498;SDS011;7851;52.260;6.030;2023-03-02T05:23:06;49.1;;;32.2;;
15498;SDS011;7851;52.260;6.030;2023-03-02T05:24:05;50;;;32.1;;
15498;SDS011;7851;52.260;6.030;2023-03-02T05:25:05;52.6;;;32.9;;
15498;SDS011;7851;52.260;6.030;2023-03-02T05:26:05;50.5;;;32.2;;
15498;SDS011;7851;52.260;6.030;2023-03-02T05:27:05;52.5;;;33.2;;
15498;SDS011;7851;52.260;6.030;2023-03-02T05:28:05;46;;;29.9;;
15498;SDS011;7851;52.260;6.030;2023-03-02T05:29:05;43.5;;;31.2;;
15498;SDS011;7851;52.260;6.030;2023-03-02T05:30:06;52.2;;;33;;
15498;SDS011;7851;52.260;6.030;2023-03-02T05:31:05;48.7;;;31.7;;
15498;SDS011;7851;52.260;6.030;2023-03-02T05:32:05;44.9;;;32.3;;
15498;SDS011;7851;52.260;6.030;2023-03-02T05:33:05;50.2;;;31.7;;
15498;SDS011;7851;52.260;6.030;2023-03-02T05:34:07;51.9;;;33.6;;
15498;SDS011;7851;52.260;6.030;2023-03-02T05:35:05;50.3;;;31.6;;
15498;SDS011;7851;52.260;6.030;2023-03-02T05:36:05;46.1;;;31.4;;
15498;SDS011;7851;52.260;6.030;2023-03-02T05:37:05;50.3;;;32.1;;
15498;SDS011;7851;52.260;6.030;2023-03-02T05:38:05;50.4;;;31.5;;
15498;SDS011;7851;52.260;6.030;2023-03-02T05:39:05;50.7;;;31.7;;
15498;SDS011;7851;52.260;6.030;2023-03-02T05:40:06;45.1;;;31.7;;
15498;SDS011;7851;52.260;6.030;2023-03-02T05:41:05;48.7;;;31.6;;
15498;SDS011;7851;52.260;6.030;2023-03-02T05:42:05;48.5;;;31;;
15498;SDS011;7851;52.260;6.030;2023-03-02T05:43:05;45.8;;;31.3;;
15498;SDS011;7851;52.260;6.030;2023-03-02T05:44:05;42.4;;;30;;
15498;SDS011;7851;52.260;6.030;2023-03-02T05:45:06;51.6;;;32.5;;
15498;SDS011;7851;52.260;6.030;2023-03-02T05:46:05;49.1;;;32.2;;
15498;SDS011;7851;52.260;6.030;2023-03-02T05:47:05;51.8;;;32.3;;
15498;SDS011;7851;52.260;6.030;2023-03-02T05:48:05;57.9;;;32.9;;
15498;SDS011;7851;52.260;6.030;2023-03-02T05:49:05;54.8;;;33.9;;
15498;SDS011;7851;52.260;6.030;2023-03-02T05:50:05;51.2;;;33.3;;
15498;SDS011;7851;52.260;6.030;2023-03-02T05:51:05;51.6;;;31.2;;
15498;SDS011;7851;52.260;6.030;2023-03-02T05:52:05;51.6;;;33;;
15498;SDS011;7851;52.260;6.030;2023-03-02T05:53:05;45.5;;;31.8;;
15498;SDS011;7851;52.260;6.030;2023-03-02T05:54:05;51.3;;;33.2;;
15498;SDS011;7851;52.260;6.030;2023-03-02T05:55:05;53.6;;;31.7;;
15498;SDS011;7851;52.260;6.030;2023-03-02T05:56:05;51;;;31.8;;
15498;SDS011;7851;52.260;6.030;2023-03-02T05:57:05;52.7;;;30.5;;
15498;SDS011;7851;52.260;6.030;2023-03-02T05:58:06;55.9;;;33;;
15498;SDS011;7851;52.260;6.030;2023-03-02T05:59:05;50.5;;;31.5;;
15498;SDS011;7851;52.260;6.030;2023-03-02T06:00:06;48.6;;;30.3;;
15498;SDS011;7851;52.260;6.030;2023-03-02T06:01:06;49.7;;;31.2;;
15498;SDS011;7851;52.260;6.030;2023-03-02T06:02:05;45.9;;;31;;
15498;SDS011;7851;52.260;6.030;2023-03-02T06:03:05;45.8;;;30;;
15498;SDS011;7851;52.260;6.030;2023-03-02T06:04:05;47.1;;;30.4;;
15498;SDS011;7851;52.260;6.030;2023-03-02T06:05:06;46.9;;;31;;
15498;SDS011;7851;52.260;6.030;2023-03-02T06:06:05;48.8;;;31.1;;
15498;SDS011;7851;52.260;6.030;2023-03-02T06:07:05;47.5;;;29.6;;
15498;SDS011;7851;52.260;6.030;2023-03-02T06:08:05;45.8;;;29.4;;
15498;SDS011;7851;52.260;6.030;2023-03-02T06:09:05;43.9;;;30.3;;
15498;SDS011;7851;52.260;6.030;2023-03-02T06:10:06;46.7;;;30;;
15498;SDS011;7851;52.260;6.030;2023-03-02T06:11:05;53.2;;;32.1;;